createdAt,value
2018-07-16T00:00:40.051Z,2.10
2018-07-16T00:04:04.926Z,2.13
2018-07-16T00:07:30.027Z,2.13
2018-07-16T00:10:54.976Z,1.93
2018-07-16T00:14:19.972Z,2.20
2018-07-16T00:17:45.117Z,2.10
2018-07-16T00:21:10.234Z,2.03
2018-07-16T00:24:35.337Z,2.30
2018-07-16T00:28:00.343Z,2.23
2018-07-16T00:31:25.379Z,2.40
2018-07-16T00:34:50.262Z,2.07
2018-07-16T00:38:15.009Z,2.27
2018-07-16T00:41:39.890Z,2.60
2018-07-16T00:45:04.873Z,2.20
2018-07-16T00:48:29.686Z,2.30
2018-07-16T00:51:54.744Z,2.07
2018-07-16T00:55:19.768Z,1.93
2018-07-16T00:58:44.469Z,1.67
2018-07-16T01:02:09.172Z,1.90
2018-07-16T01:05:33.826Z,1.93
2018-07-16T01:08:58.491Z,1.80
2018-07-16T01:12:23.191Z,2.07
2018-07-16T01:15:48.100Z,1.90
2018-07-16T01:19:12.751Z,1.90
2018-07-16T01:22:37.374Z,1.90
2018-07-16T01:26:02.219Z,1.80
2018-07-16T01:29:26.552Z,1.87
2018-07-16T01:32:51.170Z,2.07
2018-07-16T01:36:15.930Z,2.00
2018-07-16T01:39:40.559Z,1.70
2018-07-16T01:43:05.337Z,1.80
2018-07-16T01:46:30.006Z,2.00
2018-07-16T01:49:54.677Z,2.17
2018-07-16T01:53:19.361Z,2.23
2018-07-16T01:56:44.006Z,1.80
2018-07-16T02:00:08.673Z,2.10
2018-07-16T02:03:34.478Z,1.87
2018-07-16T02:06:59.196Z,1.80
2018-07-16T02:10:23.560Z,1.90
2018-07-16T02:13:48.207Z,2.33
2018-07-16T02:17:12.865Z,2.00
2018-07-16T02:20:37.667Z,2.03
2018-07-16T02:24:02.396Z,1.90
2018-07-16T02:27:27.152Z,2.10
2018-07-16T02:30:51.826Z,2.03
2018-07-16T02:34:16.576Z,2.13
2018-07-16T02:37:41.361Z,2.37
2018-07-16T02:41:06.056Z,2.67
2018-07-16T02:44:30.744Z,2.53
2018-07-16T02:47:56.017Z,2.93
2018-07-16T02:51:20.708Z,3.60
2018-07-16T02:54:45.990Z,3.57
2018-07-16T02:58:11.268Z,2.83
2018-07-16T03:01:35.913Z,3.40
2018-07-16T03:05:00.574Z,3.73
2018-07-16T03:08:25.220Z,3.13
2018-07-16T03:11:50.600Z,3.33
2018-07-16T03:15:15.640Z,3.70
2018-07-16T03:18:40.281Z,3.37
2018-07-16T03:22:04.975Z,3.30
2018-07-16T03:25:29.642Z,3.67
2018-07-16T03:28:54.365Z,3.40
2018-07-16T03:32:19.133Z,3.83
2018-07-16T03:35:43.781Z,3.60
2018-07-16T03:39:09.925Z,3.20
2018-07-16T03:42:34.669Z,3.30
2018-07-16T03:45:59.379Z,3.57
2018-07-16T03:49:24.008Z,3.43
2018-07-16T03:52:48.687Z,3.10
2018-07-16T03:56:13.377Z,3.80
2018-07-16T03:59:38.098Z,3.47
2018-07-16T04:03:03.037Z,3.90
2018-07-16T04:06:27.783Z,3.70
2018-07-16T04:09:52.605Z,3.77
2018-07-16T04:13:17.367Z,3.90
2018-07-16T04:16:42.051Z,3.40
2018-07-16T04:20:06.893Z,3.87
2018-07-16T04:23:31.553Z,3.77
2018-07-16T04:26:56.224Z,4.10
2018-07-16T04:30:20.901Z,3.50
2018-07-16T04:33:45.570Z,3.90
2018-07-16T04:37:10.297Z,4.43
2018-07-16T04:40:34.982Z,3.83
2018-07-16T04:43:59.723Z,3.70
2018-07-16T04:47:24.467Z,3.80
2018-07-16T04:50:49.181Z,4.83
2018-07-16T04:54:13.902Z,4.67
2018-07-16T04:57:38.645Z,4.50
2018-07-16T05:01:03.420Z,4.37
2018-07-16T05:04:28.347Z,4.20
2018-07-16T05:07:52.755Z,4.23
2018-07-16T05:11:17.561Z,4.43
2018-07-16T05:14:42.227Z,3.60
2018-07-16T05:18:06.980Z,3.83
2018-07-16T05:21:31.639Z,4.13
2018-07-16T05:24:56.305Z,3.73
2018-07-16T05:28:21.051Z,3.40
2018-07-16T05:31:45.819Z,3.20
2018-07-16T05:35:10.539Z,2.80
2018-07-16T05:38:35.231Z,2.80
2018-07-16T05:41:59.975Z,2.70
2018-07-16T05:45:24.639Z,2.50
2018-07-16T05:48:49.358Z,2.90
2018-07-16T05:52:14.045Z,2.80
2018-07-16T05:55:38.669Z,2.70
2018-07-16T05:59:03.323Z,2.90
2018-07-16T06:02:28.059Z,2.73
2018-07-16T06:05:52.689Z,3.10
2018-07-16T06:09:17.362Z,2.33
2018-07-16T06:12:42.089Z,2.53
2018-07-16T06:16:06.912Z,2.83
2018-07-16T06:19:31.633Z,2.97
2018-07-16T06:22:56.258Z,3.13
2018-07-16T06:26:20.933Z,3.40
2018-07-16T06:29:45.689Z,2.30
2018-07-16T06:33:10.426Z,2.63
2018-07-16T06:36:35.100Z,2.60
2018-07-16T06:39:59.937Z,2.30
2018-07-16T06:43:24.494Z,2.43
2018-07-16T06:46:49.160Z,2.70
2018-07-16T06:50:13.808Z,2.80
2018-07-16T06:53:38.512Z,2.60
2018-07-16T06:57:03.187Z,2.40
2018-07-16T07:00:28.038Z,2.27
2018-07-16T07:03:52.730Z,2.80
2018-07-16T07:07:17.417Z,3.07
2018-07-16T07:10:42.116Z,2.73
2018-07-16T07:14:06.866Z,2.50
2018-07-16T07:17:31.565Z,3.03
2018-07-16T07:20:56.273Z,3.00
2018-07-16T07:24:21.025Z,2.40
2018-07-16T07:27:45.435Z,2.60
2018-07-16T07:31:10.344Z,2.77
2018-07-16T07:34:34.992Z,2.90
2018-07-16T07:37:59.682Z,2.83
2018-07-16T07:41:24.334Z,2.80
2018-07-16T07:44:48.969Z,2.90
2018-07-16T07:48:13.613Z,3.17
2018-07-16T07:51:38.286Z,2.67
2018-07-16T07:55:03.204Z,2.93
2018-07-16T07:58:27.562Z,2.80
2018-07-16T08:01:52.251Z,2.50
2018-07-16T08:05:16.913Z,2.70
2018-07-16T08:08:41.900Z,3.03
2018-07-16T08:12:07.253Z,2.97
2018-07-16T08:15:31.916Z,3.00
2018-07-16T08:18:56.539Z,3.20
2018-07-16T08:22:21.283Z,3.67
2018-07-16T08:25:45.976Z,3.10
2018-07-16T08:29:10.731Z,2.90
2018-07-16T08:32:35.368Z,3.30
2018-07-16T08:35:59.968Z,4.17
2018-07-16T08:39:24.765Z,3.10
2018-07-16T08:42:49.466Z,3.50
2018-07-16T08:46:14.158Z,4.00
2018-07-16T08:49:38.770Z,3.90
2018-07-16T08:53:03.432Z,3.77
2018-07-16T08:56:28.112Z,3.70
2018-07-16T08:59:52.795Z,3.33
2018-07-16T09:03:17.113Z,3.73
2018-07-16T09:06:41.993Z,3.57
2018-07-16T09:10:08.812Z,3.90
2018-07-16T09:13:33.378Z,4.03
2018-07-16T09:16:58.072Z,3.87
2018-07-16T09:20:22.874Z,3.03
2018-07-16T09:23:47.626Z,3.10
2018-07-16T09:27:12.103Z,2.80
2018-07-16T09:30:39.224Z,3.90
2018-07-16T09:34:04.016Z,3.30
2018-07-16T09:37:28.369Z,3.10
2018-07-16T09:40:52.811Z,3.30
2018-07-16T09:44:17.535Z,3.60
2018-07-16T09:47:42.211Z,3.17
2018-07-16T09:51:08.088Z,3.33
2018-07-16T09:54:32.969Z,3.13
2018-07-16T09:57:57.942Z,3.50
2018-07-16T10:01:28.924Z,3.37
2018-07-16T10:04:53.901Z,3.07
2018-07-16T10:08:19.078Z,3.40
2018-07-16T10:11:43.425Z,2.90
2018-07-16T10:15:08.330Z,3.07
2018-07-16T10:18:33.226Z,3.37
2018-07-16T10:21:57.839Z,3.37
2018-07-16T10:25:22.640Z,2.73
2018-07-16T10:28:47.504Z,3.17
2018-07-16T10:32:12.176Z,2.80
2018-07-16T10:35:38.692Z,2.73
2018-07-16T10:39:05.462Z,2.73
2018-07-16T10:42:30.724Z,2.90
2018-07-16T10:45:55.762Z,2.70
2018-07-16T10:49:20.228Z,2.67
2018-07-16T10:52:44.887Z,3.03
2018-07-16T10:56:09.585Z,3.07
2018-07-16T10:59:36.150Z,3.70
2018-07-16T11:03:00.840Z,2.70
2018-07-16T11:06:25.677Z,2.77
2018-07-16T11:09:50.514Z,2.63
2018-07-16T11:13:15.179Z,2.90
2018-07-16T11:16:39.808Z,2.70
2018-07-16T11:20:04.120Z,2.70
2018-07-16T11:23:28.371Z,3.53
2018-07-16T11:26:53.048Z,3.00
2018-07-16T11:30:17.731Z,3.00
2018-07-16T11:33:42.433Z,3.20
2018-07-16T11:37:07.534Z,3.53
2018-07-16T11:40:37.125Z,3.20
2018-07-16T11:44:02.812Z,3.60
2018-07-16T11:47:30.914Z,3.50
2018-07-16T11:50:56.159Z,3.50
2018-07-16T11:54:21.235Z,4.20
2018-07-16T11:57:46.071Z,3.77
2018-07-16T12:01:10.827Z,3.33
2018-07-16T12:04:35.723Z,3.60
2018-07-16T12:08:02.088Z,3.80
2018-07-16T12:11:28.468Z,3.63
2018-07-16T12:14:53.606Z,3.53
2018-07-16T12:18:19.077Z,3.80
2018-07-16T12:21:44.903Z,3.37
2018-07-16T12:25:10.723Z,3.83
2018-07-16T12:28:35.654Z,3.63
2018-07-16T12:32:00.850Z,3.57
2018-07-16T12:35:25.868Z,3.40
2018-07-16T12:38:50.607Z,3.30
2018-07-16T12:42:15.342Z,3.37
2018-07-16T12:45:40.661Z,3.20
2018-07-16T12:49:05.104Z,3.27
2018-07-16T12:52:29.807Z,3.83
2018-07-16T12:55:54.508Z,3.90
2018-07-16T12:59:19.166Z,3.73
2018-07-16T13:02:43.995Z,3.30
2018-07-16T13:06:08.801Z,4.03
2018-07-16T13:09:33.448Z,3.63
2018-07-16T13:12:58.500Z,3.90
2018-07-16T13:16:22.796Z,3.57
2018-07-16T13:19:47.805Z,3.50
2018-07-16T13:23:12.944Z,3.67
2018-07-16T13:26:38.969Z,3.50
2018-07-16T13:30:03.667Z,3.30
2018-07-16T13:33:28.390Z,3.80
2018-07-16T13:36:53.125Z,3.30
2018-07-16T13:40:17.862Z,3.63
2018-07-16T13:43:42.519Z,3.80
2018-07-16T13:47:07.337Z,3.30
2018-07-16T13:50:32.135Z,2.87
2018-07-16T13:53:56.798Z,3.37
2018-07-16T13:57:21.486Z,3.67
2018-07-16T14:00:46.846Z,3.30
2018-07-16T14:04:11.544Z,3.70
2018-07-16T14:07:37.206Z,3.10
2018-07-16T14:11:02.807Z,3.90
2018-07-16T14:14:27.621Z,3.40
2018-07-16T14:17:52.356Z,3.50
2018-07-16T14:21:17.088Z,3.73
2018-07-16T14:24:41.784Z,3.80
2018-07-16T14:28:06.621Z,3.50
2018-07-16T14:31:30.952Z,3.40
2018-07-16T14:34:55.681Z,3.10
2018-07-16T14:38:20.529Z,3.67
2018-07-16T14:41:45.194Z,3.60
2018-07-16T14:45:09.932Z,3.60
2018-07-16T14:48:34.720Z,3.65
2018-07-16T14:51:59.373Z,3.52
2018-07-16T14:55:24.133Z,3.60
2018-07-16T14:58:48.754Z,3.27
2018-07-16T15:02:13.092Z,3.45
2018-07-16T15:05:37.983Z,3.42
2018-07-16T15:09:02.775Z,3.62
2018-07-16T15:12:27.486Z,3.58
2018-07-16T15:15:52.336Z,3.35
2018-07-16T15:19:17.133Z,3.87
2018-07-16T15:22:42.005Z,3.05
2018-07-16T15:26:07.584Z,3.42
2018-07-16T15:29:32.303Z,3.40
2018-07-16T15:32:56.838Z,3.40
2018-07-16T15:36:21.236Z,3.30
2018-07-16T15:39:45.979Z,3.50
2018-07-16T15:43:10.798Z,3.08
2018-07-16T15:46:35.479Z,3.40
2018-07-16T15:49:59.853Z,3.90
2018-07-16T15:53:24.476Z,4.28
2018-07-16T15:56:49.258Z,3.33
2018-07-16T16:00:13.932Z,3.42
2018-07-16T16:03:38.603Z,3.58
2018-07-16T16:07:03.787Z,3.50
2018-07-16T16:10:28.719Z,3.98
2018-07-16T16:13:53.781Z,3.33
2018-07-16T16:17:18.608Z,3.70
2018-07-16T16:20:43.447Z,4.08
2018-07-16T16:24:08.263Z,4.05
2018-07-16T16:27:33.126Z,3.80
2018-07-16T16:30:58.095Z,4.25
2018-07-16T16:34:23.124Z,3.98
2018-07-16T16:37:47.937Z,4.08
2018-07-16T16:41:12.883Z,3.55
2018-07-16T16:44:37.548Z,3.95
2018-07-16T16:48:02.424Z,4.08
2018-07-16T16:51:27.490Z,3.65
2018-07-16T16:54:52.709Z,3.87
2018-07-16T16:58:17.618Z,3.80
2018-07-16T17:01:42.479Z,3.83
2018-07-16T17:05:07.300Z,3.90
2018-07-16T17:08:32.022Z,3.80
2018-07-16T17:11:56.783Z,3.83
2018-07-16T17:15:21.373Z,4.08
2018-07-16T17:18:46.011Z,3.83
2018-07-16T17:22:10.349Z,3.75
2018-07-16T17:25:34.996Z,3.60
2018-07-16T17:28:59.690Z,3.77
2018-07-16T17:32:24.511Z,3.95
2018-07-16T17:35:49.276Z,4.15
2018-07-16T17:39:14.671Z,3.72
2018-07-16T17:42:39.525Z,3.40
2018-07-16T17:46:04.242Z,3.90
2018-07-16T17:49:28.987Z,4.33
2018-07-16T17:52:53.700Z,4.15
2018-07-16T17:56:18.700Z,3.72
2018-07-16T17:59:43.420Z,3.72
2018-07-16T18:03:08.480Z,4.13
2018-07-16T18:06:32.881Z,4.00
2018-07-16T18:09:57.569Z,3.90
2018-07-16T18:13:22.366Z,4.27
2018-07-16T18:16:46.970Z,4.20
2018-07-16T18:20:11.822Z,4.23
2018-07-16T18:23:36.525Z,4.57
2018-07-16T18:27:02.158Z,4.03
2018-07-16T18:30:27.084Z,4.20
2018-07-16T18:33:51.428Z,3.90
2018-07-16T18:37:16.173Z,4.10
2018-07-16T18:40:40.633Z,4.00
2018-07-16T18:44:05.490Z,4.10
2018-07-16T18:47:30.429Z,4.63
2018-07-16T18:50:55.162Z,4.30
2018-07-16T18:54:20.052Z,4.30
2018-07-16T18:57:44.861Z,4.37
2018-07-16T19:01:09.620Z,4.27
2018-07-16T19:04:34.052Z,4.40
2018-07-16T19:07:58.860Z,5.13
2018-07-16T19:11:23.613Z,4.87
2018-07-16T19:14:48.623Z,4.63
2018-07-16T19:18:13.331Z,4.80
2018-07-16T19:21:38.065Z,5.50
2018-07-16T19:25:02.958Z,4.63
2018-07-16T19:28:27.507Z,4.93
2018-07-16T19:31:52.293Z,5.07
2018-07-16T19:35:17.146Z,4.70
2018-07-16T19:38:42.024Z,4.60
2018-07-16T19:42:07.042Z,5.00
2018-07-16T19:45:31.849Z,5.13
2018-07-16T19:48:56.191Z,4.60
2018-07-16T20:23:01.358Z,4.07
2018-07-16T20:33:14.436Z,3.40
2018-07-16T20:36:39.139Z,3.40
2018-07-16T20:40:03.865Z,3.67
2018-07-16T20:43:28.557Z,3.50
2018-07-16T20:46:53.437Z,2.67
2018-07-16T20:50:18.119Z,2.20
2018-07-16T20:53:42.753Z,2.50
2018-07-16T20:57:07.300Z,2.87
2018-07-16T21:00:31.973Z,2.50
2018-07-16T21:03:56.652Z,3.97
2018-07-16T21:07:21.467Z,2.83
2018-07-16T21:10:46.625Z,3.03
2018-07-16T21:14:11.506Z,2.83
2018-07-16T21:17:36.191Z,2.87
2018-07-16T21:21:00.824Z,3.47
2018-07-16T21:24:25.157Z,2.97
2018-07-16T21:27:49.924Z,3.30
2018-07-16T21:31:14.747Z,3.37
2018-07-16T21:34:39.511Z,3.53
2018-07-16T21:38:04.206Z,3.33
2018-07-16T21:41:28.880Z,3.20
2018-07-16T21:44:53.505Z,2.93
2018-07-16T21:48:18.157Z,3.60
2018-07-16T21:51:42.792Z,3.00
2018-07-16T21:55:07.478Z,2.77
2018-07-16T21:58:32.168Z,2.57
2018-07-16T22:01:56.908Z,3.00
2018-07-16T22:05:21.632Z,2.80
2018-07-16T22:08:46.311Z,3.10
2018-07-16T22:12:11.088Z,3.50
2018-07-16T22:15:35.924Z,2.93
2018-07-16T22:19:00.654Z,3.30
2018-07-16T22:22:25.268Z,2.70
2018-07-16T22:25:49.956Z,3.00
2018-07-16T22:29:14.639Z,2.73
2018-07-16T22:32:39.310Z,2.87
2018-07-16T22:36:03.653Z,3.03
2018-07-16T22:39:28.285Z,3.50
2018-07-16T22:42:52.945Z,2.47
2018-07-16T22:46:17.662Z,2.57
2018-07-16T22:49:41.974Z,3.00
2018-07-16T22:53:06.646Z,3.13
2018-07-16T22:56:31.326Z,3.33
2018-07-16T22:59:56.026Z,3.80
2018-07-16T23:03:20.644Z,3.60
2018-07-16T23:06:45.364Z,3.77
2018-07-16T23:10:10.010Z,3.17
2018-07-16T23:13:34.648Z,3.43
2018-07-16T23:16:59.287Z,3.43
2018-07-16T23:20:23.975Z,3.10
2018-07-16T23:23:48.627Z,3.00
2018-07-16T23:27:13.270Z,2.97
2018-07-16T23:30:37.931Z,3.67
2018-07-16T23:34:02.565Z,3.70
2018-07-16T23:37:27.176Z,3.90
2018-07-16T23:40:51.806Z,3.60
2018-07-16T23:44:16.436Z,3.73
2018-07-16T23:47:41.055Z,3.33
2018-07-16T23:51:05.477Z,3.27
2018-07-16T23:54:30.990Z,3.77
2018-07-16T23:57:55.708Z,3.37
